OMAD/AZI METAR and TAF weather

Enter ICAO airport designator
Station Type Date Time Source
OMAD METAR 2021/05/13 18:00 UTC NOAA

OMAD 131800Z 32004KT CAVOK 30/23 Q1002 NOSIG


Station Type Date Time Source
OMAD Decoded METAR 2021/05/13 18:00 UTC NOAA

Abu Dhabi Bateen Airport, United Arab Emirates (OMAD) 24-26N 054-28E 3M
May 13, 2021 - 02:00 PM EDT / 2021.05.13 1800 UTC
Wind: from the NW (320 degrees) at 5 MPH (4 KT):0
Visibility: greater than 7 mile(s):0
Temperature: 86 F (30 C)
Heat index: 93.4 F (34.1 C):1
Dew Point: 73 F (23 C)
Relative Humidity: 66%
Pressure (altimeter): 29.59 in. Hg (1002 hPa)
ob: OMAD 131800Z 32004KT CAVOK 30/23 Q1002 NOSIG
cycle: 18

Station Type Date Time Source
OMAD TAF 2021/05/13 18:00 UTC NOAA

TAF OMAD 131700Z 1318/1500 30006KT CAVOK
BECMG 1320/1322 18005KT PROB30 1401/1404 4000 HZ
BECMG 1406/1408 32015KT
BECMG 1419/1421 VRB02KT

Example: see airport list